x

Galveston,tx - 22 Nm East Of Galveston, Tx (42035) Wave Buoy

11:50am - Mon 27th Feb 2017 All times are CST. -6 hours from GMT.

  • Sig Wave height 3.6ft
  • Swell Direction
  • Peak Period 6s
  • Average Period 5s
  • Wind
    13mph, 16mph gusts
  • Sea Temp 67°f
  • Air Temp 69°f
  • Sea Pressure 1017mb
  • Galveston,tx -  22 Nm East Of Galveston, Tx
  • Galveston,tx -  22 Nm East Of Galveston, Tx

More Historic Weather Station data

Upgrade to MSW Pro to gain access to the past 30 days of data for over 8000 Wavebouys and Weather Stations around the globe.

Join Pro

Comparision Forecast

View Surf forecast
   
Mon 02/27 11:50am 3.5ft 6s 5s 13 16 mph 1017mb 67f 69f
10:50am 3ft 6s 5s 9
mph
1017.2mb 66f 68f
9:50am 3.5ft 6s 5s 11
mph
1017.1mb 66f 68f
8:50am 3ft 6s 5s 9
mph
1016.7mb 66f 68f
7:50am 3ft 6s 5s 7
mph
1016.5mb 65f 67f
6:50am 3ft 6s 5s 7
mph
1015.7mb 65f 67f
5:50am 3ft 6s 4s 7
mph
1014.8mb 65f 67f
4:50am 3.5ft 6s 5s 9 11 mph 1013.7mb 65f 68f
3:50am 3ft 6s 4s 13
mph
1013mb 65f 68f
2:50am 3ft 6s 4s 16 18 mph 1012.8mb 65f 68f
1:50am 3ft 6s 5s 13 16 mph 1013.7mb 66f 67f
12:50am 2.5ft 6s 4s 13 16 mph 1014.2mb 66f 67f
Sun 02/26 11:50pm 3ft 6s 4s 11 13 mph 1014.8mb 66f 68f
10:50pm 3.5ft 6s 4s 11 13 mph 1014.8mb 66f 67f
9:50pm 3.5ft 6s 4s 13
mph
1015.3mb 66f 67f
8:50pm 4ft 6s 4s 18 20 mph 1014.2mb 66f 67f
7:50pm 3.5ft 6s 4s 16 18 mph 1014.1mb 66f 67f
6:50pm 3.5ft 6s 4s 16 18 mph 1014.1mb 66f 67f
5:50pm 3.5ft 5s 4s 13 16 mph 1014.2mb 66f 67f
4:50pm 3.5ft 5s 4s 16 18 mph 1014.1mb 66f 67f
3:50pm 4ft 6s 5s 16 18 mph 1014.1mb 66f 67f
2:50pm 3.5ft 5s 4s 16 18 mph 1014.7mb 66f 67f
1:50pm 3.5ft 5s 4s 13 16 mph 1015.5mb 66f 67f
12:50pm 3.5ft 5s 4s 13 16 mph 1017mb 66f 67f
11:50am 3.5ft 5s 4s 16 18 mph 1017.7mb 65f 67f
10:50am 3.5ft 5s 4s 13 18 mph 1018.5mb 65f 67f
9:50am 3.5ft 5s 4s 13 16 mph 1018.4mb 65f 66f
8:50am 3.5ft 5s 4s 18 20 mph 1017.7mb 65f 66f
7:50am 3.5ft 4s 4s 18 22 mph 1017.1mb 65f 65f
6:50am 3.5ft 4s 4s 16 20 mph 1017.1mb 65f 64f
5:50am 3ft 5s 4s 18 20 mph 1016.9mb 65f 65f
4:50am 3ft 4s 4s 18 20 mph 1016.8mb 65f 64f
3:50am 2.5ft 4s 4s 16 20 mph 1016.8mb 65f 64f
2:50am 2.5ft 4s 4s 16 18 mph 1017mb 65f 64f
1:50am 2ft 4s 4s 16 18 mph 1017.4mb 65f 64f
12:50am 2ft 4s 4s 16 18 mph 1017.8mb 65f 64f
Sat 02/25 11:50pm 2ft 3s 4s 13 16 mph 1018.2mb 65f 64f
10:50pm 1.6ft 7s 4s 13 16 mph 1018.7mb 65f 65f
9:50pm 1.6ft 3s 4s 11 13 mph 1019.1mb 65f 65f
8:50pm 1.6ft 5s 4s 9 11 mph 1018.8mb 65f 64f
7:50pm 1.6ft 5s 4s 9 11 mph 1018.3mb 65f 63f
6:50pm 1.6ft 4s 4s 11 13 mph 1017.8mb 65f 64f
5:50pm 1.6ft 5s 4s 7 9 mph 1018.1mb 66f 62f
4:50pm 1.6ft 6s 4s 4 7 mph 1018.5mb 66f 62f
3:50pm 2ft 5s 4s 4 7 mph 1018.4mb 66f 61f
2:50pm 2.5ft 5s 4s 7
mph
1018.7mb 65f 60f
1:50pm 2.5ft 5s 4s 9 11 mph 1019.2mb 65f 60f
12:50pm 3ft 5s 4s 11 16 mph 1020.2mb 65f 58f
11:50am 4ft 5s 4s 13 16 mph 1020.8mb 65f 57f
10:50am 4.5ft 6s 4s 18 22 mph 1020.6mb 65f 56f
9:50am 4.5ft 5s 4s 20 25 mph 1020.1mb 65f 55f
8:50am 4.5ft 5s 4s 25 29 mph 1019.3mb 65f 55f
7:50am 3.5ft 4s 4s 29 34 mph 1018.1mb 65f 56f
6:50am 3.5ft 4s 4s 27 31 mph 1017.2mb 65f 58f
5:50am 3.5ft 4s 4s 22 27 mph 1016.8mb 65f 58f
4:50am 3.5ft 4s 4s 22 29 mph 1015.4mb 65f 59f
3:50am 3.5ft 4s 4s 25 29 mph 1015mb 65f 60f
2:50am 4.5ft 4s 4s 22 27 mph 1014.5mb 66f 61f
1:50am 4.5ft 4s 4s 25 31 mph 1014.2mb 66f 62f
12:50am 4.5ft 4s 4s 27 34 mph 1013.6mb 66f 62f
Fri 02/24 11:50pm 4.5ft 4s 4s 25 31 mph 1013.5mb 66f 64f
10:50pm 3.5ft 7s 4s 25 34 mph 1012.8mb 67f 66f
9:50pm 3.5ft 7s 5s 27 34 mph 1011.7mb 67f 68f
8:50pm 3.5ft 7s 5s 9 11 mph 1011.2mb 67f 68f
7:50pm 3.5ft 7s 5s 7
mph
1009.9mb 67f 68f
6:50pm 4ft 7s 5s 9
mph
1008.4mb 67f 68f
5:50pm 3.5ft 7s 5s 9
mph
1008mb 67f 68f
4:50pm 4ft 7s 5s 9
mph
1007.7mb 68f 69f
3:50pm 4.5ft 7s 5s 7
mph
1007.8mb 67f 69f
2:50pm 4.5ft 7s 5s 9
mph
1007.8mb 67f 68f
1:50pm 4.5ft 7s 6s 7 9 mph 1008.2mb 67f 68f
12:50pm 5ft 6s 6s 7 9 mph 1008.8mb 68f 68f
11:50am 4.5ft 7s 5s 2 4 mph 1009.7mb 68f 68f
10:50am 4.5ft 6s 5s 4
mph
1009.3mb 67f 68f
9:50am 4.5ft 6s 5s 2 4 mph 1009mb 66f 67f
8:50am 4.5ft 6s 5s 2 4 mph 1008.4mb 65f 68f
7:50am 4.5ft 6s 5s 4 7 mph 1007.7mb 65f 67f
6:50am 4.5ft 6s 5s 16 20 mph 1005.5mb 65f 68f
5:50am 3.5ft 6s 5s 13
mph
1005.1mb 65f 67f
4:50am 4ft 5s 5s 16 18 mph 1004.5mb 65f 67f
3:50am 3.5ft 5s 4s 16 18 mph 1004.7mb 65f 67f
2:50am 3.5ft 5s 4s 18 20 mph 1004.7mb 65f 67f
1:50am 4ft 5s 4s 20 25 mph 1004.6mb 65f 67f
12:50am 3.5ft 4s 4s 18 22 mph 1005.1mb 66f 67f
Thu 02/23 11:50pm 3ft 5s 4s 20 22 mph 1005.5mb 66f 67f
10:50pm 2.5ft 4s 4s 18 20 mph 1005.8mb 66f 67f
9:50pm 2.5ft 4s 4s 20 22 mph 1005.7mb 66f 67f
8:50pm 2.5ft 4s 4s 18 20 mph 1005.9mb 66f 67f
7:50pm 2ft 5s 4s 18 20 mph 1005.5mb 66f 67f